Time;durP1;ratioP1;P1;durP2;ratioP2;P2;SDS_P1;SDS_P2;PMS_P1;PMS_P2;Temp;Humidity;BMP_temperature;BMP_pressure;BME280_temperature;BME280_humidity;BME280_pressure;Samples;Min_cycle;Max_cycle;Signal;HPM_P1;HPM_P2
2022/04/13 00:01:44;;;;;;;11.43;4.57;;;13.70;45.20;;;;;;2374377;56;21135;-73
2022/04/13 00:04:11;;;;;;;9.70;4.50;;;13.60;44.70;;;;;;2373621;56;21039;-74
2022/04/13 00:06:38;;;;;;;7.22;3.80;;;13.60;45.20;;;;;;2372012;56;21071;-74
2022/04/13 00:09:06;;;;;;;7.65;4.43;;;13.60;45.10;;;;;;2373928;56;21225;-74
2022/04/13 00:11:34;;;;;;;8.50;3.95;;;13.60;45.90;;;;;;2374079;56;21121;-74
2022/04/13 00:14:02;;;;;;;6.68;4.05;;;13.60;45.60;;;;;;2374007;56;21494;-74
2022/04/13 00:16:29;;;;;;;8.25;4.05;;;13.60;45.50;;;;;;2373649;56;21101;-74
2022/04/13 00:18:57;;;;;;;10.13;4.70;;;13.60;46.10;;;;;;2373918;56;21113;-75
2022/04/13 00:21:24;;;;;;;5.75;4.15;;;13.60;44.90;;;;;;2373785;56;21031;-74
2022/04/13 00:23:51;;;;;;;10.27;4.60;;;13.60;45.60;;;;;;2372566;56;21131;-74
2022/04/13 00:26:18;;;;;;;7.40;4.00;;;13.60;45.70;;;;;;2373460;56;21023;-74
2022/04/13 00:28:46;;;;;;;7.32;4.30;;;13.50;45.70;;;;;;2373763;56;21679;-74
2022/04/13 00:31:13;;;;;;;8.13;4.95;;;13.50;45.90;;;;;;2374175;56;21047;-75
2022/04/13 00:33:40;;;;;;;8.13;4.40;;;13.50;46.10;;;;;;2374165;56;21064;-73
2022/04/13 00:36:08;;;;;;;6.65;4.10;;;13.50;46.50;;;;;;2373928;56;21538;-75
2022/04/13 00:38:35;;;;;;;6.55;4.07;;;13.50;46.70;;;;;;2373554;56;21035;-74
2022/04/13 00:41:02;;;;;;;9.45;5.05;;;13.50;45.60;;;;;;2625598;52;21598;-74
2022/04/13 00:43:29;;;;;;;8.88;4.70;;;13.40;46.40;;;;;;2374172;56;21111;-74
2022/04/13 00:45:56;;;;;;;7.72;4.45;;;13.40;46.50;;;;;;2626851;52;21126;-75
2022/04/13 00:48:30;;;;;;;5.72;4.30;;;13.40;46.30;;;;;;2374132;56;21537;-74
2022/04/13 00:50:58;;;;;;;8.02;4.78;;;13.40;46.60;;;;;;2374214;56;21031;-74
2022/04/13 00:53:26;;;;;;;9.95;4.62;;;13.40;46.90;;;;;;2374099;56;21047;-74
2022/04/13 00:58:33;;;;;;;7.97;4.12;;;13.30;46.70;;;;;;2355699;57;22074;-73
2022/04/13 01:01:02;;;;;;;7.18;4.35;;;13.30;46.80;;;;;;2347610;57;21104;-73
2022/04/13 01:03:31;;;;;;;9.15;4.87;;;13.30;46.40;;;;;;2347859;57;21115;-74
2022/04/13 01:05:59;;;;;;;7.70;3.80;;;13.30;46.70;;;;;;2357522;56;21102;-73
2022/04/13 01:08:28;;;;;;;7.40;3.85;;;13.30;46.60;;;;;;2375371;56;21046;-74
2022/04/13 01:10:56;;;;;;;6.43;4.32;;;13.30;47.40;;;;;;2374876;56;21063;-74
2022/04/13 01:13:24;;;;;;;6.65;4.00;;;13.20;46.90;;;;;;2373828;56;21047;-73
2022/04/13 01:15:51;;;;;;;6.12;3.90;;;13.30;47.90;;;;;;2374027;56;21649;-74
2022/04/13 01:18:19;;;;;;;9.10;4.43;;;13.20;48.00;;;;;;2374746;56;21118;-74
2022/04/13 01:20:54;;;;;;;9.32;4.55;;;13.20;46.70;;;;;;2375183;56;21338;-73
2022/04/13 01:23:21;;;;;;;6.85;4.07;;;13.20;47.00;;;;;;2375217;56;21047;-73
2022/04/13 01:25:50;;;;;;;12.02;4.07;;;13.20;47.30;;;;;;2373750;56;21050;-74
2022/04/13 01:28:17;;;;;;;8.48;4.80;;;13.10;47.10;;;;;;2375247;56;21043;-74
2022/04/13 01:30:45;;;;;;;7.05;4.45;;;13.10;47.20;;;;;;2375066;56;21558;-73
2022/04/13 01:33:12;;;;;;;6.40;4.20;;;13.10;47.50;;;;;;2628446;52;21114;-73
2022/04/13 01:35:40;;;;;;;9.05;4.35;;;13.10;47.50;;;;;;2374678;56;21059;-74
2022/04/13 01:38:07;;;;;;;7.03;4.68;;;13.10;47.60;;;;;;2374858;56;21108;-73
2022/04/13 01:40:35;;;;;;;7.10;4.18;;;13.10;47.40;;;;;;2374113;56;21118;-73
2022/04/13 01:43:02;;;;;;;8.75;4.15;;;13.10;47.30;;;;;;2375105;56;21043;-74
2022/04/13 01:45:29;;;;;;;6.18;3.87;;;13.10;48.20;;;;;;2628054;52;21042;-74
2022/04/13 01:47:57;;;;;;;7.62;4.68;;;13.10;47.90;;;;;;2374940;56;21039;-73
2022/04/13 01:50:24;;;;;;;9.98;4.62;;;13.10;47.80;;;;;;2374969;56;21055;-74
2022/04/13 01:52:51;;;;;;;8.35;4.35;;;13.00;48.30;;;;;;2374944;56;21031;-74
2022/04/13 01:55:19;;;;;;;7.62;4.25;;;13.00;48.00;;;;;;2374747;56;21186;-74
2022/04/13 01:57:46;;;;;;;9.77;5.07;;;13.00;48.20;;;;;;2374521;56;21106;-73
2022/04/13 02:00:14;;;;;;;9.52;5.30;;;13.00;48.60;;;;;;2374765;56;21106;-74
2022/04/13 02:02:41;;;;;;;8.23;4.50;;;13.00;48.40;;;;;;2375051;56;21557;-73
2022/04/13 02:05:10;;;;;;;8.73;4.43;;;13.00;48.30;;;;;;2374868;56;21063;-73
2022/04/13 02:07:38;;;;;;;8.10;4.30;;;13.00;48.20;;;;;;2374817;56;21123;-74
2022/04/13 02:10:09;;;;;;;6.35;4.07;;;13.00;48.50;;;;;;2373850;56;21070;-73
2022/04/13 02:12:37;;;;;;;8.65;4.80;;;12.90;49.00;;;;;;2373561;56;21043;-73
2022/04/13 02:15:05;;;;;;;6.75;3.85;;;12.90;49.10;;;;;;2374102;56;21051;-74
2022/04/13 02:17:33;;;;;;;7.35;4.25;;;12.90;49.20;;;;;;2373479;56;21047;-73
2022/04/13 02:20:00;;;;;;;6.35;4.25;;;12.90;49.10;;;;;;2374390;56;21039;-74
2022/04/13 02:22:27;;;;;;;7.68;4.57;;;12.90;49.30;;;;;;2374211;56;21612;-74
2022/04/13 02:24:54;;;;;;;7.05;4.75;;;12.90;50.40;;;;;;2373854;56;21080;-74
2022/04/13 02:27:22;;;;;;;10.23;4.60;;;12.90;50.00;;;;;;2373023;56;21047;-73
2022/04/13 02:29:50;;;;;;;8.73;4.65;;;12.90;49.90;;;;;;2372899;56;21085;-73
2022/04/13 02:32:17;;;;;;;7.68;4.35;;;12.90;49.80;;;;;;2374373;56;21054;-74
2022/04/13 02:34:48;;;;;;;8.25;5.10;;;12.80;49.80;;;;;;2374348;56;21345;-73
2022/04/13 02:37:15;;;;;;;9.05;4.68;;;12.80;49.20;;;;;;2373981;56;21116;-74
2022/04/13 02:39:44;;;;;;;9.80;4.65;;;12.80;49.90;;;;;;2374444;56;21024;-73
2022/04/13 02:42:14;;;;;;;9.60;5.22;;;12.80;50.10;;;;;;2374151;56;21035;-73
2022/04/13 02:44:42;;;;;;;11.02;4.80;;;12.80;49.80;;;;;;2373854;56;21110;-74
2022/04/13 02:47:09;;;;;;;8.15;5.07;;;12.80;49.90;;;;;;2372236;56;21095;-73
2022/04/13 02:49:36;;;;;;;9.15;5.15;;;12.70;49.10;;;;;;2374315;56;21625;-74
2022/04/13 02:52:05;;;;;;;9.75;4.78;;;12.70;50.10;;;;;;2374108;56;21142;-73
2022/04/13 02:54:32;;;;;;;9.93;5.25;;;12.70;50.00;;;;;;2374278;56;21127;-73
2022/04/13 02:56:59;;;;;;;7.35;4.87;;;12.70;49.70;;;;;;2373730;56;21114;-73
2022/04/13 02:59:26;;;;;;;9.32;4.30;;;12.70;49.70;;;;;;2374072;56;21601;-75
2022/04/13 03:01:54;;;;;;;8.07;4.45;;;12.70;50.30;;;;;;2373275;56;21035;-73
2022/04/13 03:04:21;;;;;;;9.88;5.22;;;12.60;50.00;;;;;;2372684;56;21039;-74
2022/04/13 03:06:48;;;;;;;7.82;4.55;;;12.60;50.10;;;;;;2373580;56;21031;-73
2022/04/13 03:09:15;;;;;;;9.25;4.90;;;12.60;50.30;;;;;;2374194;56;21114;-73
2022/04/13 03:11:42;;;;;;;9.00;4.85;;;12.60;50.90;;;;;;2373849;56;21058;-73
2022/04/13 03:14:10;;;;;;;7.78;4.95;;;12.60;50.80;;;;;;2627231;52;21039;-74
2022/04/13 03:16:37;;;;;;;9.75;5.55;;;12.60;50.60;;;;;;2373616;56;21082;-73
2022/04/13 03:19:04;;;;;;;9.38;5.37;;;12.60;50.40;;;;;;2373045;56;21573;-74
2022/04/13 03:21:32;;;;;;;9.93;5.00;;;12.60;49.90;;;;;;2373715;56;21310;-73
2022/04/13 03:23:59;;;;;;;8.00;4.62;;;12.60;51.00;;;;;;2373719;56;21110;-74
2022/04/13 03:26:26;;;;;;;8.80;5.05;;;12.50;50.40;;;;;;2373617;56;21110;-74
2022/04/13 03:28:53;;;;;;;9.63;4.95;;;12.60;50.70;;;;;;2373901;56;21074;-74
2022/04/13 03:31:22;;;;;;;7.78;4.90;;;12.60;50.70;;;;;;2626517;52;21069;-74
2022/04/13 03:33:49;;;;;;;7.97;4.70;;;12.60;50.50;;;;;;2626743;52;21119;-74
2022/04/13 03:36:18;;;;;;;11.70;5.15;;;12.60;51.20;;;;;;2626413;52;21047;-75
2022/04/13 03:38:46;;;;;;;9.18;5.03;;;12.60;50.80;;;;;;2374156;56;21047;-74
2022/04/13 03:41:13;;;;;;;7.68;4.35;;;12.60;50.40;;;;;;2374177;56;21054;-75
2022/04/13 03:43:40;;;;;;;9.25;5.07;;;12.60;50.40;;;;;;2373803;56;21035;-73
2022/04/13 03:46:07;;;;;;;8.02;4.62;;;12.60;51.00;;;;;;2373468;56;21047;-77
2022/04/13 03:48:35;;;;;;;8.65;5.22;;;12.60;51.00;;;;;;2373865;56;21564;-76
2022/04/13 03:51:02;;;;;;;10.40;5.82;;;12.60;51.10;;;;;;2373492;56;21050;-76
2022/04/13 03:53:29;;;;;;;8.40;5.32;;;12.60;51.00;;;;;;2374020;56;21039;-76
2022/04/13 03:55:56;;;;;;;8.88;5.32;;;12.60;51.00;;;;;;2373531;56;21051;-76
2022/04/13 03:58:24;;;;;;;7.72;5.40;;;12.60;51.40;;;;;;2626564;52;21027;-77
2022/04/13 04:00:52;;;;;;;9.45;5.90;;;12.60;51.40;;;;;;2374030;56;21095;-74
2022/04/13 04:03:19;;;;;;;7.87;4.95;;;12.60;51.40;;;;;;2627262;52;21035;-74
2022/04/13 04:05:46;;;;;;;8.98;5.45;;;12.70;51.70;;;;;;2373598;56;21126;-75
2022/04/13 04:08:13;;;;;;;9.57;5.53;;;12.70;50.50;;;;;;2373550;56;21106;-75
2022/04/13 04:10:41;;;;;;;10.38;5.78;;;12.70;50.50;;;;;;2374228;56;21130;-76
2022/04/13 04:13:08;;;;;;;8.68;4.95;;;12.70;50.80;;;;;;2374026;56;21122;-74
2022/04/13 04:15:35;;;;;;;9.05;5.50;;;12.70;51.00;;;;;;2373702;56;21071;-76
2022/04/13 04:18:02;;;;;;;10.88;5.57;;;12.70;51.00;;;;;;2373783;56;21102;-74
2022/04/13 04:20:30;;;;;;;8.50;5.22;;;12.70;50.80;;;;;;2372076;56;21620;-75
2022/04/13 04:22:57;;;;;;;9.82;5.97;;;12.70;51.20;;;;;;2626555;52;21035;-75
2022/04/13 04:25:24;;;;;;;9.00;5.15;;;12.70;51.10;;;;;;2372166;56;21114;-74
2022/04/13 04:27:51;;;;;;;10.38;5.62;;;12.60;50.70;;;;;;2372736;56;21136;-75
2022/04/13 04:30:19;;;;;;;9.30;5.03;;;12.70;51.20;;;;;;2372930;56;21573;-75
2022/04/13 04:32:46;;;;;;;11.90;5.93;;;12.70;51.40;;;;;;2374029;56;21118;-74
2022/04/13 04:35:13;;;;;;;11.02;5.95;;;12.70;51.00;;;;;;2372641;56;21086;-74
2022/04/13 04:37:40;;;;;;;9.65;6.07;;;12.60;51.10;;;;;;2371302;56;21110;-75
2022/04/13 04:40:08;;;;;;;11.45;6.37;;;12.60;50.80;;;;;;2372724;56;21103;-74
2022/04/13 04:42:45;;;;;;;12.95;5.97;;;12.60;50.70;;;;;;2373036;56;21114;-75
2022/04/13 04:45:13;;;;;;;10.20;5.93;;;12.50;50.50;;;;;;2373074;56;21048;-75
2022/04/13 04:47:40;;;;;;;12.52;5.78;;;12.50;50.50;;;;;;2626518;52;21051;-74
2022/04/13 04:50:10;;;;;;;9.65;6.10;;;12.50;50.90;;;;;;2374081;56;21051;-75
2022/04/13 04:52:41;;;;;;;11.12;5.50;;;12.50;50.90;;;;;;2373455;56;22090;-74
2022/04/13 04:55:10;;;;;;;9.70;5.65;;;12.50;50.90;;;;;;2373420;56;21055;-75
2022/04/13 04:57:38;;;;;;;9.05;5.70;;;12.50;51.00;;;;;;2373421;56;21031;-75
2022/04/13 05:00:09;;;;;;;12.15;6.47;;;12.50;51.10;;;;;;2373281;56;21670;-74
2022/04/13 05:02:37;;;;;;;11.18;6.15;;;12.40;51.00;;;;;;2627039;52;21047;-74
2022/04/13 05:05:06;;;;;;;10.98;5.72;;;12.40;50.90;;;;;;2372882;56;21184;-75
2022/04/13 05:07:34;;;;;;;10.95;5.28;;;12.40;51.50;;;;;;2373217;56;21090;-75
2022/04/13 05:10:01;;;;;;;9.15;5.57;;;12.40;51.60;;;;;;2372988;56;21166;-75
2022/04/13 05:12:29;;;;;;;10.65;6.30;;;12.40;51.60;;;;;;2373344;56;21046;-75
2022/04/13 05:14:56;;;;;;;12.57;6.53;;;12.40;51.70;;;;;;2625858;52;21107;-76
2022/04/13 05:17:23;;;;;;;9.65;5.50;;;12.40;51.30;;;;;;2373154;56;21106;-74
2022/04/13 05:19:51;;;;;;;9.55;5.40;;;12.40;51.60;;;;;;2373732;56;21135;-76
2022/04/13 05:22:19;;;;;;;8.80;5.97;;;12.30;51.60;;;;;;2373636;56;21661;-75
2022/04/13 05:24:46;;;;;;;11.63;6.45;;;12.40;51.90;;;;;;2373515;56;21102;-76
2022/04/13 05:27:14;;;;;;;11.02;6.12;;;12.40;51.90;;;;;;2373496;56;21031;-75
2022/04/13 05:29:42;;;;;;;10.85;6.43;;;12.40;51.80;;;;;;2372798;56;21039;-75
2022/04/13 05:32:09;;;;;;;11.07;6.15;;;12.30;51.50;;;;;;2626806;52;21094;-75
2022/04/13 05:34:37;;;;;;;11.73;6.60;;;12.30;51.60;;;;;;2626807;52;21050;-75
2022/04/13 05:37:04;;;;;;;11.68;6.47;;;12.30;51.90;;;;;;2372953;56;21593;-76
2022/04/13 05:39:31;;;;;;;12.85;6.90;;;12.40;51.90;;;;;;2373833;56;21546;-76
2022/04/13 05:41:59;;;;;;;10.23;5.57;;;12.40;52.00;;;;;;2373942;56;21047;-76
2022/04/13 05:44:26;;;;;;;11.48;5.87;;;12.40;52.00;;;;;;2373967;56;21676;-76
2022/04/13 05:46:53;;;;;;;11.70;5.70;;;12.40;52.30;;;;;;2372866;56;21043;-75
2022/04/13 05:49:20;;;;;;;10.90;6.28;;;12.40;51.90;;;;;;2373521;56;21119;-76
2022/04/13 05:51:48;;;;;;;11.90;6.87;;;12.40;51.90;;;;;;2627229;52;21031;-75
2022/04/13 05:56:50;;;;;;;11.75;7.05;;;12.40;52.30;;;;;;2315802;57;27948;-75
2022/04/13 05:59:17;;;;;;;12.07;6.18;;;12.30;52.70;;;;;;2347417;57;21117;-75
2022/04/13 06:01:45;;;;;;;8.65;5.85;;;12.40;52.60;;;;;;2595128;52;21505;-75
2022/04/13 06:04:12;;;;;;;9.05;6.05;;;12.50;52.30;;;;;;2346929;57;21560;-75
2022/04/13 06:06:39;;;;;;;10.20;5.53;;;12.60;52.00;;;;;;2594111;52;21037;-75
2022/04/13 06:09:06;;;;;;;12.93;6.65;;;12.60;51.90;;;;;;2347615;57;21050;-75
2022/04/13 06:11:34;;;;;;;10.35;6.03;;;12.60;51.90;;;;;;2345773;57;21074;-74
2022/04/13 06:14:01;;;;;;;11.50;6.28;;;12.70;51.90;;;;;;2347176;57;21144;-74
2022/04/13 06:16:28;;;;;;;9.88;6.05;;;12.70;51.60;;;;;;2347316;57;21022;-75
2022/04/13 06:18:55;;;;;;;10.85;6.20;;;12.70;51.90;;;;;;2594547;52;21588;-74
2022/04/13 06:21:23;;;;;;;10.82;6.47;;;12.60;51.70;;;;;;2347325;57;21375;-76
2022/04/13 06:23:50;;;;;;;11.05;6.37;;;12.70;51.80;;;;;;2595182;53;21050;-75
2022/04/13 06:26:18;;;;;;;11.95;6.47;;;12.70;51.60;;;;;;2347017;57;21049;-75
2022/04/13 06:28:45;;;;;;;12.05;6.95;;;12.70;51.60;;;;;;2347572;57;21057;-75
2022/04/13 06:31:13;;;;;;;8.77;6.03;;;12.70;51.60;;;;;;2345280;57;21053;-75
2022/04/13 06:33:40;;;;;;;9.95;5.68;;;12.80;51.80;;;;;;2347536;57;21049;-74
2022/04/13 06:36:08;;;;;;;13.20;6.97;;;12.70;51.90;;;;;;2346690;57;21532;-75
2022/04/13 06:38:40;;;;;;;12.23;6.45;;;12.80;52.10;;;;;;2347246;57;21046;-74
2022/04/13 06:41:07;;;;;;;12.48;6.18;;;12.90;52.00;;;;;;2345937;57;21591;-74
2022/04/13 06:43:35;;;;;;;13.95;6.78;;;12.90;52.00;;;;;;2346547;57;21093;-75
2022/04/13 06:46:02;;;;;;;9.40;5.68;;;12.90;52.20;;;;;;2346317;57;21033;-74
2022/04/13 06:48:29;;;;;;;9.93;5.87;;;13.00;52.30;;;;;;2345881;57;21030;-75
2022/04/13 06:50:57;;;;;;;12.45;6.55;;;13.00;52.10;;;;;;2593270;53;21112;-76
2022/04/13 06:53:25;;;;;;;10.63;6.93;;;13.10;52.30;;;;;;2347543;57;21053;-76
2022/04/13 06:55:52;;;;;;;10.05;5.75;;;13.10;52.10;;;;;;2346654;57;21097;-74
2022/04/13 06:58:20;;;;;;;11.10;7.37;;;13.10;52.10;;;;;;2347257;57;21045;-75
2022/04/13 07:00:47;;;;;;;13.20;7.43;;;13.20;52.50;;;;;;2347344;57;21125;-75
2022/04/13 07:03:15;;;;;;;9.60;6.22;;;13.10;51.70;;;;;;2347280;57;21117;-75
2022/04/13 07:05:42;;;;;;;12.13;7.07;;;13.20;52.30;;;;;;2594092;52;21097;-75
2022/04/13 07:08:10;;;;;;;11.80;6.90;;;13.20;53.00;;;;;;2345671;57;21730;-76
2022/04/13 07:10:37;;;;;;;11.05;6.57;;;13.30;52.70;;;;;;2593576;53;21595;-76
2022/04/13 07:13:04;;;;;;;11.12;6.20;;;13.30;52.30;;;;;;2346276;57;21584;-77
2022/04/13 07:15:32;;;;;;;12.25;6.03;;;13.40;52.40;;;;;;2345918;57;21042;-76
2022/04/13 07:17:59;;;;;;;9.07;5.80;;;13.50;52.70;;;;;;2345519;57;21045;-74
2022/04/13 07:20:26;;;;;;;11.23;6.15;;;13.50;52.60;;;;;;2346191;57;21141;-76
2022/04/13 07:22:55;;;;;;;10.88;6.37;;;13.60;52.30;;;;;;2346224;57;21057;-75
2022/04/13 07:25:23;;;;;;;10.80;6.80;;;13.60;52.10;;;;;;2345803;57;21033;-75
2022/04/13 07:27:51;;;;;;;11.10;6.25;;;13.70;52.10;;;;;;2346134;57;21172;-74
2022/04/13 07:30:18;;;;;;;13.40;6.40;;;13.80;52.20;;;;;;2345927;57;21089;-75
2022/04/13 07:32:46;;;;;;;12.55;6.70;;;13.90;52.30;;;;;;2345613;57;21038;-75
2022/04/13 07:35:15;;;;;;;9.15;5.97;;;13.90;51.80;;;;;;2345923;57;21065;-75
2022/04/13 07:37:43;;;;;;;11.45;6.45;;;14.00;52.00;;;;;;2593385;53;21061;-75
2022/04/13 07:40:15;;;;;;;14.77;7.12;;;14.00;52.40;;;;;;2346490;57;21057;-74
2022/04/13 07:42:43;;;;;;;13.23;5.87;;;14.10;51.80;;;;;;2593215;53;21101;-74
2022/04/13 07:45:11;;;;;;;12.25;6.32;;;14.10;51.90;;;;;;2345955;57;21114;-75
2022/04/13 07:47:38;;;;;;;18.42;7.55;;;14.20;51.90;;;;;;2343574;57;21116;-76
2022/04/13 07:50:11;;;;;;;14.18;6.90;;;14.20;51.70;;;;;;2346222;57;21153;-75
2022/04/13 07:52:39;;;;;;;9.57;6.37;;;14.30;51.50;;;;;;2346518;57;21038;-76
2022/04/13 07:55:09;;;;;;;10.68;6.32;;;14.40;51.40;;;;;;2346277;57;21038;-75
2022/04/13 07:57:38;;;;;;;10.15;6.65;;;14.40;51.30;;;;;;2346242;57;21113;-76
2022/04/13 08:00:09;;;;;;;11.10;6.85;;;14.50;51.40;;;;;;2346220;57;21109;-76
2022/04/13 08:02:37;;;;;;;11.15;6.75;;;14.60;50.90;;;;;;2344083;57;21136;-75
2022/04/13 08:05:06;;;;;;;12.25;6.53;;;14.60;51.00;;;;;;2346332;57;21121;-74
2022/04/13 08:07:33;;;;;;;23.77;8.00;;;14.60;51.20;;;;;;2561527;52;21043;-75
2022/04/13 08:10:00;;;;;;;10.20;6.50;;;14.70;51.40;;;;;;2375528;56;21018;-74
2022/04/13 08:12:32;;;;;;;11.05;6.93;;;14.80;51.30;;;;;;2375848;56;21107;-75
2022/04/13 08:15:00;;;;;;;14.55;6.90;;;14.80;50.50;;;;;;2375507;56;21575;-74
2022/04/13 08:17:27;;;;;;;12.27;6.20;;;14.90;50.70;;;;;;2375189;56;21007;-75
2022/04/13 08:19:55;;;;;;;9.63;6.10;;;15.00;51.00;;;;;;2375444;56;21026;-75
2022/04/13 08:22:27;;;;;;;9.50;5.87;;;15.00;50.90;;;;;;2374795;56;21019;-74
2022/04/13 08:24:55;;;;;;;10.70;5.80;;;15.10;50.80;;;;;;2375580;56;21396;-75
2022/04/13 08:27:22;;;;;;;10.88;6.32;;;15.20;50.60;;;;;;2374914;56;21019;-73
2022/04/13 08:29:49;;;;;;;12.88;6.90;;;15.20;50.90;;;;;;2376052;56;21031;-75
2022/04/13 08:32:17;;;;;;;10.27;6.95;;;15.30;50.90;;;;;;2629487;52;21054;-75
2022/04/13 08:34:46;;;;;;;12.25;6.75;;;15.30;50.70;;;;;;2629079;52;21078;-75
2022/04/13 08:37:13;;;;;;;10.15;6.28;;;15.30;50.60;;;;;;2374495;56;21117;-74
2022/04/13 08:39:40;;;;;;;10.70;6.60;;;15.40;51.30;;;;;;2375636;56;21091;-75
2022/04/13 08:42:13;;;;;;;11.15;6.50;;;15.50;50.80;;;;;;2375737;56;21027;-74
2022/04/13 08:44:49;;;;;;;11.12;6.22;;;15.50;51.10;;;;;;2629356;52;21027;-75
2022/04/13 08:47:18;;;;;;;11.12;6.53;;;15.60;51.10;;;;;;2375182;56;21021;-74
2022/04/13 08:49:48;;;;;;;11.30;6.60;;;15.60;50.40;;;;;;2375826;56;21003;-74
2022/04/13 08:52:18;;;;;;;13.30;6.65;;;15.70;50.30;;;;;;2629122;52;21011;-74
2022/04/13 08:55:01;;;;;;;11.55;6.95;;;15.70;50.50;;;;;;2375140;56;21014;-74
2022/04/13 08:57:30;;;;;;;13.40;6.75;;;15.80;50.40;;;;;;2375313;56;21055;-75
2022/04/13 09:00:10;;;;;;;10.80;6.80;;;15.90;50.70;;;;;;2375491;56;21169;-74
2022/04/13 09:02:54;;;;;;;11.45;6.28;;;16.00;50.90;;;;;;2375785;56;21073;-74
2022/04/13 09:05:26;;;;;;;11.32;6.43;;;16.10;50.90;;;;;;2375637;56;21102;-74
2022/04/13 09:08:05;;;;;;;11.43;6.62;;;16.20;50.90;;;;;;2375481;56;21093;-75
2022/04/13 09:10:33;;;;;;;9.10;5.40;;;16.30;50.80;;;;;;2375120;56;21486;-75
2022/04/13 09:13:01;;;;;;;11.60;7.20;;;16.30;50.90;;;;;;2375673;56;21082;-74
2022/04/13 09:15:29;;;;;;;11.48;6.68;;;16.40;50.70;;;;;;2374750;56;21130;-75
2022/04/13 09:17:56;;;;;;;12.60;6.60;;;16.40;50.80;;;;;;2375523;56;21031;-74
2022/04/13 09:20:24;;;;;;;11.05;6.30;;;16.50;50.70;;;;;;2373841;56;21097;-75
2022/04/13 09:22:53;;;;;;;10.70;6.72;;;16.60;50.40;;;;;;2375364;56;21054;-74
2022/04/13 09:25:22;;;;;;;11.05;6.55;;;16.60;50.50;;;;;;2374845;56;21030;-75
2022/04/13 09:27:50;;;;;;;10.70;6.32;;;16.70;50.60;;;;;;2375551;56;21014;-74
2022/04/13 09:30:17;;;;;;;12.35;6.45;;;16.80;50.90;;;;;;2375903;56;21090;-74
2022/04/13 09:32:45;;;;;;;15.90;6.35;;;16.90;50.50;;;;;;2375956;56;21098;-76
2022/04/13 09:35:13;;;;;;;14.63;7.45;;;16.90;50.70;;;;;;2374593;56;21054;-75
2022/04/13 09:37:41;;;;;;;12.73;7.07;;;17.00;50.40;;;;;;2374450;56;21603;-74
2022/04/13 09:40:25;;;;;;;12.27;6.45;;;17.00;50.10;;;;;;2627932;52;21062;-75
2022/04/13 09:42:52;;;;;;;10.43;6.60;;;17.00;50.00;;;;;;2376013;56;21031;-74
2022/04/13 09:45:25;;;;;;;15.27;7.30;;;17.10;50.40;;;;;;2375295;56;21122;-76
2022/04/13 09:47:52;;;;;;;17.02;7.45;;;17.20;50.50;;;;;;2375720;56;21086;-74
2022/04/13 09:50:25;;;;;;;15.82;7.85;;;17.40;50.30;;;;;;2375927;56;21608;-74
2022/04/13 09:52:57;;;;;;;14.10;7.15;;;17.30;50.50;;;;;;2375769;56;21030;-74
2022/04/13 09:55:25;;;;;;;12.23;6.93;;;17.40;50.20;;;;;;2373814;56;21181;-74
2022/04/13 09:58:04;;;;;;;11.00;6.20;;;17.50;50.30;;;;;;2374081;56;21614;-74
2022/04/13 10:00:32;;;;;;;15.20;7.62;;;17.60;50.50;;;;;;2375550;56;21485;-74
2022/04/13 10:03:09;;;;;;;12.40;7.32;;;17.70;50.00;;;;;;2628920;52;21051;-75
2022/04/13 10:05:36;;;;;;;13.48;7.72;;;17.80;50.10;;;;;;2374958;56;21169;-74
2022/04/13 10:08:06;;;;;;;15.48;7.72;;;17.80;49.90;;;;;;2375533;56;21014;-74
2022/04/13 10:10:33;;;;;;;12.73;7.30;;;17.80;49.80;;;;;;2375705;56;21078;-75
2022/04/13 10:13:01;;;;;;;12.02;7.28;;;17.90;50.00;;;;;;2375402;56;21090;-74
2022/04/13 10:15:29;;;;;;;12.18;7.55;;;18.00;50.20;;;;;;2374747;56;21035;-74
2022/04/13 10:18:00;;;;;;;15.55;8.25;;;18.10;50.30;;;;;;2375363;56;21022;-74
2022/04/13 10:20:42;;;;;;;14.20;7.55;;;18.20;50.10;;;;;;2375355;56;21023;-76
2022/04/13 10:23:10;;;;;;;15.57;8.07;;;18.30;49.70;;;;;;2375345;56;21059;-76
2022/04/13 10:25:38;;;;;;;33.05;9.10;;;18.40;50.30;;;;;;2374795;56;21577;-74
2022/04/13 10:28:06;;;;;;;17.70;7.97;;;18.50;49.50;;;;;;2375375;56;21537;-75
2022/04/13 10:30:35;;;;;;;14.95;7.82;;;18.60;49.60;;;;;;2375395;56;21560;-74
2022/04/13 10:33:05;;;;;;;13.55;7.87;;;18.80;50.20;;;;;;2374881;56;21043;-74
2022/04/13 10:35:35;;;;;;;18.10;9.13;;;18.90;49.80;;;;;;2374891;56;21019;-74
2022/04/13 10:38:03;;;;;;;11.38;7.10;;;19.00;50.00;;;;;;2375563;56;20998;-74
2022/04/13 10:40:32;;;;;;;15.88;8.07;;;19.10;50.00;;;;;;2375610;56;21046;-74
2022/04/13 10:43:01;;;;;;;13.88;6.95;;;19.30;49.50;;;;;;2375722;56;21106;-75
2022/04/13 10:45:30;;;;;;;15.45;8.15;;;19.30;49.30;;;;;;2375566;56;21102;-74
2022/04/13 10:48:01;;;;;;;12.88;7.78;;;19.40;49.00;;;;;;2375001;56;21157;-75
2022/04/13 10:50:35;;;;;;;15.73;8.25;;;19.50;48.60;;;;;;2375465;56;21007;-74
2022/04/13 10:53:18;;;;;;;13.60;6.90;;;19.60;48.40;;;;;;2629441;52;21075;-75
2022/04/13 10:55:51;;;;;;;13.23;7.57;;;19.70;48.10;;;;;;2375152;56;21015;-74
2022/04/13 10:58:24;;;;;;;12.30;7.62;;;19.80;48.10;;;;;;2629334;52;21074;-75
2022/04/13 11:00:57;;;;;;;14.85;7.87;;;19.80;48.40;;;;;;2376328;56;21003;-74
2022/04/13 11:03:32;;;;;;;15.38;7.87;;;19.90;48.20;;;;;;2375219;56;21089;-74
2022/04/13 11:06:01;;;;;;;13.62;7.70;;;19.90;48.30;;;;;;2375545;56;21109;-75
2022/04/13 11:08:35;;;;;;;15.55;7.85;;;20.00;48.60;;;;;;2375704;56;21069;-74
2022/04/13 11:11:04;;;;;;;17.23;8.43;;;20.00;48.10;;;;;;2375870;56;21040;-75
2022/04/13 11:13:33;;;;;;;15.65;8.85;;;20.10;48.20;;;;;;2374390;56;21106;-75
2022/04/13 11:16:15;;;;;;;17.25;8.32;;;20.20;47.90;;;;;;2374769;56;21006;-74
2022/04/13 11:18:43;;;;;;;14.48;8.48;;;20.20;47.30;;;;;;2376106;56;21046;-74
2022/04/13 11:21:11;;;;;;;20.37;9.43;;;20.30;47.70;;;;;;2375428;56;21610;-75
2022/04/13 11:23:49;;;;;;;16.27;8.45;;;20.40;47.70;;;;;;2375890;56;21086;-74
2022/04/13 11:26:25;;;;;;;14.52;7.90;;;20.40;47.60;;;;;;2375451;56;21145;-74
2022/04/13 11:29:13;;;;;;;17.55;8.50;;;20.40;47.70;;;;;;2375880;56;21094;-74
2022/04/13 11:32:06;;;;;;;17.58;8.35;;;20.50;48.00;;;;;;2374047;56;21035;-74
2022/04/13 11:34:43;;;;;;;17.52;9.35;;;20.60;47.80;;;;;;2375819;56;21620;-75
2022/04/13 11:37:13;;;;;;;17.20;8.30;;;20.70;47.20;;;;;;2375145;56;21300;-75
2022/04/13 11:39:45;;;;;;;19.00;9.25;;;20.70;47.10;;;;;;2629116;52;21030;-75
2022/04/13 11:42:34;;;;;;;15.05;9.05;;;20.80;47.00;;;;;;2375848;56;21521;-75
2022/04/13 11:47:39;;;;;;;19.67;10.67;;;20.90;46.40;;;;;;2308032;57;30853;-75
2022/04/13 11:50:21;;;;;;;15.93;8.52;;;21.50;46.90;;;;;;2346214;57;21041;-74
2022/04/13 11:52:52;;;;;;;18.12;9.32;;;21.40;47.20;;;;;;2594522;53;21623;-75
2022/04/13 11:55:21;;;;;;;16.37;8.80;;;21.40;46.70;;;;;;2592890;53;21037;-75
2022/04/13 11:57:59;;;;;;;22.58;9.07;;;21.50;46.70;;;;;;2594573;53;21038;-75
2022/04/13 12:00:41;;;;;;;18.70;8.70;;;21.60;46.70;;;;;;2593113;53;21683;-74
2022/04/13 12:03:11;;;;;;;20.90;9.63;;;21.70;47.00;;;;;;2594388;53;21124;-75
2022/04/13 12:05:40;;;;;;;21.45;9.43;;;21.70;46.80;;;;;;2346846;57;21120;-75
2022/04/13 12:08:11;;;;;;;22.02;9.80;;;21.80;46.80;;;;;;2346794;57;21033;-74
2022/04/13 12:10:44;;;;;;;22.37;9.60;;;21.80;46.50;;;;;;2342167;57;21046;-75
2022/04/13 12:13:12;;;;;;;22.93;10.73;;;21.90;46.40;;;;;;2594483;53;21025;-75
2022/04/13 12:15:47;;;;;;;20.17;10.15;;;22.00;46.20;;;;;;2345515;57;21690;-76
2022/04/13 12:18:15;;;;;;;23.17;10.73;;;22.10;45.80;;;;;;2344352;57;21664;-75
2022/04/13 12:20:42;;;;;;;20.60;9.00;;;22.20;45.20;;;;;;2345246;57;21045;-74
2022/04/13 12:23:18;;;;;;;21.23;10.10;;;22.30;45.50;;;;;;2345765;57;21050;-75
2022/04/13 12:25:46;;;;;;;22.05;9.98;;;22.40;45.40;;;;;;2345537;57;21041;-76
2022/04/13 12:28:14;;;;;;;21.15;9.50;;;22.50;44.80;;;;;;2345664;57;21073;-75
2022/04/13 12:30:42;;;;;;;26.55;10.90;;;22.60;45.20;;;;;;2345854;57;21054;-74
2022/04/13 12:33:21;;;;;;;25.12;10.68;;;22.70;44.70;;;;;;2345865;57;21584;-76
2022/04/13 12:35:51;;;;;;;21.50;9.75;;;22.70;43.90;;;;;;2346110;57;21073;-74
2022/04/13 12:38:24;;;;;;;20.45;9.40;;;22.70;44.60;;;;;;2346521;57;21049;-74
2022/04/13 12:41:05;;;;;;;24.00;9.60;;;22.70;45.00;;;;;;2346740;57;21536;-74
2022/04/13 12:43:33;;;;;;;25.62;10.05;;;22.90;44.20;;;;;;2346858;57;21213;-75
2022/04/13 12:46:12;;;;;;;23.85;9.50;;;22.90;43.70;;;;;;2345276;57;21026;-74
2022/04/13 12:48:41;;;;;;;22.17;9.52;;;22.90;44.60;;;;;;2346275;57;21030;-74
2022/04/13 12:51:08;;;;;;;25.00;9.13;;;23.00;45.10;;;;;;2346469;57;21096;-74
2022/04/13 12:53:48;;;;;;;21.15;9.95;;;23.10;44.30;;;;;;2346776;57;21037;-74
2022/04/13 12:56:18;;;;;;;22.10;9.27;;;23.10;43.90;;;;;;2593335;53;21121;-75
2022/04/13 12:58:46;;;;;;;22.48;10.27;;;23.20;44.10;;;;;;2345855;57;21077;-75